Terminal Aerodrome Forecast
Issued by NWS Shreveport, LA

Home | Current Version | Previous Version | Text Only | Print | Product List | Glossary On
Versions: 1 2 3 4 5 6 7 8 9 10 11 12 13 14 15 16 17 18 19 20 21 22 23 24
000
FTUS44 KSHV 242352
TAFGGG
TAF
KGGG 242352Z 2500/2524 12010KT 6SM -SHRA VCTS BKN025CB OVC035
     FM250300 17012G20KT 4SM TSRA BR BKN015CB OVC025
      TEMPO 2503/2506 VRB20G35KT 2SM +TSRA BR OVC010CB
     FM250600 20010G15KT P6SM BKN020 OVC040
     FM251500 23015G25KT P6SM SKC=

USA.gov is the U.S. government's official web portal to all federal, state and local government web resources and services.